Time;durP1;ratioP1;P1;durP2;ratioP2;P2;SDS_P1;SDS_P2;PMS_P1;PMS_P2;Temp;Humidity;BMP_temperature;BMP_pressure;BME280_temperature;BME280_humidity;BME280_pressure;Samples;Min_cycle;Max_cycle;Signal;HPM_P1;HPM_P2
2023/09/26 00:02:26;;;;;;;8.77;4.95;;;15.50;99.90;;;;;;2602633;54;20073;31
2023/09/26 00:05:09;;;;;;;8.65;5.43;;;15.50;99.90;;;;;;2603196;54;20090;31
2023/09/26 00:07:44;;;;;;;8.18;5.10;;;15.50;99.90;;;;;;2603245;54;20112;31
2023/09/26 00:10:22;;;;;;;10.00;5.18;;;15.50;99.90;;;;;;2603130;54;19942;31
2023/09/26 00:13:05;;;;;;;10.23;5.82;;;15.60;99.90;;;;;;2603223;54;20026;31
2023/09/26 00:15:43;;;;;;;8.60;5.50;;;15.50;99.90;;;;;;2602421;54;20907;31
2023/09/26 00:18:26;;;;;;;8.18;5.15;;;15.50;99.90;;;;;;2602382;54;20030;31
2023/09/26 00:21:02;;;;;;;8.40;5.70;;;15.50;99.90;;;;;;2614352;46;20033;31
2023/09/26 00:23:40;;;;;;;10.30;5.70;;;15.50;99.90;;;;;;2602439;54;20139;31
2023/09/26 00:26:21;;;;;;;9.82;5.70;;;15.50;99.90;;;;;;2603210;54;20762;31
2023/09/26 00:28:55;;;;;;;11.05;5.78;;;15.50;99.90;;;;;;2621093;46;20917;31
2023/09/26 00:31:33;;;;;;;10.32;5.50;;;15.50;99.90;;;;;;2621665;46;20033;31
2023/09/26 00:34:14;;;;;;;11.73;6.13;;;15.50;99.90;;;;;;2621622;46;20042;31
2023/09/26 00:36:51;;;;;;;9.05;5.00;;;15.50;99.90;;;;;;2603257;54;20031;31
2023/09/26 00:39:30;;;;;;;8.47;5.33;;;15.50;99.90;;;;;;2603168;54;20166;31
2023/09/26 00:42:08;;;;;;;10.23;5.25;;;15.50;99.90;;;;;;2621492;46;20022;31
2023/09/26 00:44:46;;;;;;;8.93;5.90;;;15.50;99.90;;;;;;2602990;54;20913;31
2023/09/26 00:47:22;;;;;;;8.47;4.87;;;15.40;99.90;;;;;;2603051;54;20900;31
2023/09/26 00:50:07;;;;;;;7.90;5.45;;;15.40;99.90;;;;;;2603162;54;20022;31
2023/09/26 00:52:46;;;;;;;11.77;6.00;;;15.40;99.90;;;;;;2621293;47;20053;31
2023/09/26 00:55:27;;;;;;;7.10;3.72;;;15.40;99.90;;;;;;2603072;54;20027;31
2023/09/26 00:58:07;;;;;;;6.25;4.55;;;15.40;99.90;;;;;;2603047;54;20026;31
2023/09/26 01:00:53;;;;;;;7.68;5.40;;;15.40;99.90;;;;;;2603259;54;20034;31
2023/09/26 01:03:29;;;;;;;7.88;4.72;;;15.40;99.90;;;;;;2602974;54;20033;31
2023/09/26 01:06:10;;;;;;;9.48;5.18;;;15.40;99.90;;;;;;2602316;54;20921;31
2023/09/26 01:08:46;;;;;;;8.25;5.30;;;15.30;99.90;;;;;;2603012;54;20026;31
2023/09/26 01:11:24;;;;;;;8.80;5.00;;;15.30;99.90;;;;;;2602923;54;20053;31
2023/09/26 01:14:01;;;;;;;7.72;4.88;;;15.30;99.90;;;;;;2603101;54;20046;31
2023/09/26 01:16:40;;;;;;;9.18;4.88;;;15.30;99.90;;;;;;2613475;47;20034;31
2023/09/26 01:19:15;;;;;;;8.00;5.03;;;15.30;99.90;;;;;;2602147;54;20812;31
2023/09/26 01:21:53;;;;;;;8.40;4.90;;;15.20;99.90;;;;;;2602891;54;20253;31
2023/09/26 01:24:37;;;;;;;10.80;4.55;;;15.20;99.90;;;;;;2602161;54;20038;31
2023/09/26 01:27:17;;;;;;;6.95;4.55;;;15.30;99.90;;;;;;2701229;39;21557;31
2023/09/26 01:29:54;;;;;;;7.00;3.90;;;15.20;99.90;;;;;;2602327;54;20023;31
2023/09/26 01:32:32;;;;;;;6.90;4.72;;;15.20;99.90;;;;;;2700705;39;21476;31
2023/09/26 01:35:11;;;;;;;6.88;5.00;;;15.20;99.90;;;;;;2602316;54;20034;31
2023/09/26 01:37:50;;;;;;;7.45;5.60;;;15.20;99.90;;;;;;2603010;54;20853;31
2023/09/26 01:40:27;;;;;;;12.63;5.82;;;15.20;99.90;;;;;;2603309;54;20030;31
2023/09/26 01:43:08;;;;;;;8.40;5.50;;;15.20;99.90;;;;;;2603699;54;20049;31
2023/09/26 01:45:42;;;;;;;11.27;6.15;;;15.20;99.90;;;;;;2603821;54;20030;31
2023/09/26 01:48:18;;;;;;;10.50;5.30;;;15.20;99.90;;;;;;2603679;54;20096;31
2023/09/26 01:50:54;;;;;;;9.48;5.85;;;15.10;99.90;;;;;;2603623;54;20053;31
2023/09/26 01:53:32;;;;;;;8.05;5.50;;;15.10;99.90;;;;;;2603740;54;20128;31
2023/09/26 01:56:10;;;;;;;8.30;6.07;;;15.10;99.90;;;;;;2622142;46;20136;31
2023/09/26 01:58:53;;;;;;;8.15;5.30;;;15.10;99.90;;;;;;2603564;54;20093;31
2023/09/26 02:01:33;;;;;;;12.13;6.13;;;15.10;99.90;;;;;;2720723;39;21470;31
2023/09/26 02:04:12;;;;;;;7.60;5.50;;;15.10;99.90;;;;;;2622456;46;20022;31
2023/09/26 02:06:53;;;;;;;8.10;4.53;;;15.10;99.90;;;;;;2621943;46;20869;31
2023/09/26 02:09:32;;;;;;;9.40;5.67;;;15.10;99.90;;;;;;2603593;54;20036;31
2023/09/26 02:12:11;;;;;;;10.60;5.85;;;15.10;99.90;;;;;;2701309;39;20416;31
2023/09/26 02:14:49;;;;;;;8.35;5.60;;;15.00;99.90;;;;;;2602805;54;20031;31
2023/09/26 02:17:28;;;;;;;10.52;6.80;;;15.00;99.90;;;;;;2603561;54;20033;31
2023/09/26 02:20:11;;;;;;;10.93;6.15;;;15.00;99.90;;;;;;2720803;39;21510;31
2023/09/26 02:22:50;;;;;;;9.60;6.15;;;15.00;99.90;;;;;;2603628;54;20520;31
2023/09/26 02:25:26;;;;;;;12.80;5.90;;;15.00;99.90;;;;;;2616159;46;20132;31
2023/09/26 02:28:02;;;;;;;;;;;15.00;99.90;;;;;;2602913;54;20041;31
2023/09/26 02:30:41;;;;;;;8.93;5.38;;;14.90;99.90;;;;;;2602526;54;19934;31
2023/09/26 02:33:17;;;;;;;6.65;4.07;;;15.00;99.90;;;;;;2602831;54;20907;31
2023/09/26 02:36:07;;;;;;;11.15;6.38;;;14.90;99.90;;;;;;2603424;54;21212;31
2023/09/26 02:38:45;;;;;;;10.27;5.40;;;14.90;99.90;;;;;;2603581;54;20081;31
2023/09/26 02:41:20;;;;;;;9.85;5.35;;;14.90;99.90;;;;;;2603367;54;20053;31
2023/09/26 02:43:59;;;;;;;11.90;6.50;;;14.90;99.90;;;;;;2603547;54;20784;31
2023/09/26 02:46:40;;;;;;;12.68;5.60;;;14.90;99.90;;;;;;2603825;54;20050;31
2023/09/26 02:49:19;;;;;;;9.37;5.17;;;14.80;99.90;;;;;;2603204;54;20046;31
2023/09/26 02:51:59;;;;;;;8.30;5.20;;;14.80;99.90;;;;;;2603482;54;20026;31
2023/09/26 02:54:37;;;;;;;9.53;5.77;;;14.80;99.90;;;;;;2603696;54;20023;31
2023/09/26 02:57:14;;;;;;;9.73;5.97;;;14.80;99.90;;;;;;2603468;54;20116;31
2023/09/26 02:59:53;;;;;;;8.95;5.85;;;14.80;99.90;;;;;;2603542;54;20906;31
2023/09/26 03:02:36;;;;;;;10.77;5.85;;;14.80;99.90;;;;;;2602688;54;20080;31
2023/09/26 03:05:15;;;;;;;12.25;6.25;;;14.80;99.90;;;;;;2720721;39;21380;31
2023/09/26 03:07:52;;;;;;;11.00;5.45;;;14.80;99.90;;;;;;2603752;54;20842;31
2023/09/26 03:10:28;;;;;;;8.23;5.40;;;14.80;99.90;;;;;;2603353;54;20848;31
2023/09/26 03:13:09;;;;;;;7.25;5.10;;;14.80;99.90;;;;;;2622032;46;20875;31
2023/09/26 03:15:45;;;;;;;8.90;5.18;;;14.70;99.90;;;;;;2603400;54;20112;31
2023/09/26 03:18:25;;;;;;;;;;;14.70;99.90;;;;;;2609657;46;20028;31
2023/09/26 03:21:03;;;;;;;8.45;5.30;;;14.70;99.90;;;;;;2619600;46;19942;31
2023/09/26 03:23:42;;;;;;;7.25;4.00;;;14.70;99.90;;;;;;2603485;54;20026;31
2023/09/26 03:26:17;;;;;;;7.80;5.38;;;14.70;99.90;;;;;;2602558;54;20079;31
2023/09/26 03:28:52;;;;;;;9.82;5.82;;;14.60;99.90;;;;;;2606321;46;20031;31
2023/09/26 03:31:29;;;;;;;8.80;6.20;;;14.60;99.90;;;;;;2621857;46;20030;31
2023/09/26 03:34:08;;;;;;;9.52;5.28;;;14.60;99.90;;;;;;2603276;54;20064;31
2023/09/26 03:36:43;;;;;;;10.40;5.90;;;14.60;99.90;;;;;;2622031;46;20125;31
2023/09/26 03:39:25;;;;;;;9.35;5.78;;;14.60;99.90;;;;;;2605629;46;20044;31
2023/09/26 03:41:59;;;;;;;12.07;5.87;;;14.60;99.90;;;;;;2603134;54;21317;31
2023/09/26 03:44:43;;;;;;;8.88;5.57;;;14.60;99.90;;;;;;2603213;54;20033;31
2023/09/26 03:47:22;;;;;;;14.30;6.55;;;14.50;99.90;;;;;;2603317;54;20034;31
2023/09/26 03:50:05;;;;;;;10.15;6.20;;;14.50;99.90;;;;;;2621529;46;20038;31
2023/09/26 03:52:44;;;;;;;8.95;5.80;;;14.50;99.90;;;;;;2602520;54;20874;31
2023/09/26 03:55:23;;;;;;;9.57;6.32;;;14.50;99.90;;;;;;2602697;54;20033;31
2023/09/26 03:57:58;;;;;;;12.32;6.78;;;14.40;99.90;;;;;;2603018;54;20068;31
2023/09/26 04:00:34;;;;;;;10.93;7.57;;;14.50;99.90;;;;;;2621691;46;20140;31
2023/09/26 04:03:11;;;;;;;8.50;5.25;;;14.50;99.90;;;;;;2602716;54;20843;31
2023/09/26 04:06:01;;;;;;;10.38;6.40;;;14.40;99.90;;;;;;2603115;54;21054;31
2023/09/26 04:08:39;;;;;;;8.95;6.07;;;14.50;99.90;;;;;;2603353;54;20049;31
2023/09/26 04:11:14;;;;;;;12.67;6.73;;;14.40;99.90;;;;;;2603334;54;20116;31
2023/09/26 04:13:52;;;;;;;11.35;6.20;;;14.50;99.90;;;;;;2603213;54;20117;31
2023/09/26 04:16:30;;;;;;;11.75;6.75;;;14.40;99.90;;;;;;2621732;46;20027;31
2023/09/26 04:19:08;;;;;;;11.85;6.40;;;14.30;99.90;;;;;;2602363;54;20560;31
2023/09/26 04:21:46;;;;;;;10.50;6.13;;;14.40;99.90;;;;;;2603193;54;20759;31
2023/09/26 04:24:26;;;;;;;12.98;6.68;;;14.40;99.90;;;;;;2603130;54;20249;31
2023/09/26 04:27:06;;;;;;;11.25;6.85;;;14.40;99.90;;;;;;2602432;54;20031;31
2023/09/26 04:29:45;;;;;;;13.10;7.00;;;14.40;99.90;;;;;;2700826;39;20455;31
2023/09/26 04:32:23;;;;;;;10.43;6.67;;;14.40;99.90;;;;;;2603157;54;20116;31
2023/09/26 04:35:02;;;;;;;12.15;7.32;;;14.30;99.90;;;;;;2603028;54;20026;31
2023/09/26 04:37:44;;;;;;;10.93;6.73;;;14.30;99.90;;;;;;2621843;46;20034;31
2023/09/26 04:40:22;;;;;;;12.00;7.45;;;14.30;99.90;;;;;;2603383;54;20022;31
2023/09/26 04:43:02;;;;;;;10.23;6.60;;;14.30;99.90;;;;;;2604768;46;20033;31
2023/09/26 04:45:39;;;;;;;11.50;6.80;;;14.30;99.90;;;;;;2602953;54;20053;31
2023/09/26 04:48:15;;;;;;;;;;;14.40;99.90;;;;;;2603166;54;20872;31
2023/09/26 04:50:51;;;;;;;11.65;6.85;;;14.30;99.90;;;;;;2603014;54;20709;31
2023/09/26 04:54:01;;;;;;;10.13;5.68;;;14.30;99.90;;;;;;2603177;54;20812;31
2023/09/26 04:56:40;;;;;;;11.68;6.90;;;14.30;99.90;;;;;;2602945;54;20920;31
2023/09/26 04:59:23;;;;;;;11.85;6.80;;;14.30;99.90;;;;;;2602957;54;20911;31
2023/09/26 05:02:10;;;;;;;12.65;7.38;;;14.30;99.90;;;;;;2603030;54;20034;31
2023/09/26 05:04:48;;;;;;;16.30;7.13;;;14.30;99.90;;;;;;2621558;47;20046;31
2023/09/26 05:07:29;;;;;;;13.13;7.07;;;14.30;99.90;;;;;;2603019;54;20788;31
2023/09/26 05:10:14;;;;;;;9.25;6.45;;;14.40;99.90;;;;;;2602184;54;20073;31
2023/09/26 05:12:52;;;;;;;12.50;6.90;;;14.40;99.90;;;;;;2621233;47;20100;31
2023/09/26 05:15:31;;;;;;;12.07;6.47;;;14.40;99.90;;;;;;2603634;54;20864;31
2023/09/26 05:20:46;;;;;;;19.85;7.70;;;14.40;99.90;;;;;;2622666;46;20053;31
2023/09/26 05:23:22;;;;;;;10.90;7.60;;;14.50;99.90;;;;;;2603701;54;20034;31
2023/09/26 05:26:09;;;;;;;15.57;6.65;;;14.50;99.90;;;;;;2622211;46;20022;31
2023/09/26 05:31:39;;;;;;;12.50;7.60;;;14.50;99.90;;;;;;2622053;46;20053;31
2023/09/26 05:34:22;;;;;;;12.00;7.70;;;14.60;99.90;;;;;;2603718;54;20784;31
2023/09/26 05:37:02;;;;;;;12.10;7.55;;;14.70;99.90;;;;;;2622466;46;20057;31
2023/09/26 05:39:42;;;;;;;13.80;7.65;;;14.80;99.90;;;;;;2603828;54;20022;31
2023/09/26 05:42:34;;;;;;;11.40;6.75;;;14.90;99.90;;;;;;2773547;31;21544;31
2023/09/26 05:45:19;;;;;;;17.00;7.50;;;15.00;99.90;;;;;;2621511;46;20034;31
2023/09/26 05:47:57;;;;;;;11.93;7.30;;;15.20;99.90;;;;;;2603718;54;20757;31
2023/09/26 05:50:36;;;;;;;12.15;7.60;;;15.40;99.90;;;;;;2603677;54;20132;31
2023/09/26 05:53:15;;;;;;;15.60;7.90;;;15.60;99.90;;;;;;2603759;54;20116;31
2023/09/26 05:55:55;;;;;;;11.57;8.00;;;15.90;99.90;;;;;;2603746;54;20027;31
2023/09/26 05:58:49;;;;;;;14.30;8.50;;;16.00;99.90;;;;;;2603640;54;20747;31
2023/09/26 06:01:28;;;;;;;16.20;8.15;;;16.30;99.90;;;;;;2622357;46;20246;31
2023/09/26 06:04:04;;;;;;;17.90;7.97;;;16.50;99.90;;;;;;2603529;54;20034;31
2023/09/26 06:06:42;;;;;;;12.53;7.70;;;16.70;99.90;;;;;;2619773;46;20033;31
2023/09/26 06:09:20;;;;;;;14.35;8.75;;;16.80;99.90;;;;;;2621979;46;20033;31
2023/09/26 06:12:00;;;;;;;15.55;8.20;;;17.00;99.90;;;;;;2603570;54;20108;31
2023/09/26 06:14:37;;;;;;;11.07;7.87;;;17.20;99.90;;;;;;2603596;54;20759;31
2023/09/26 06:17:23;;;;;;;15.63;9.27;;;17.40;99.90;;;;;;2603513;54;20254;31
2023/09/26 06:20:01;;;;;;;15.95;9.10;;;17.60;99.90;;;;;;2603504;54;20030;31
2023/09/26 06:22:41;;;;;;;14.23;8.73;;;17.70;99.90;;;;;;2602711;54;20051;31
2023/09/26 06:25:26;;;;;;;14.20;9.17;;;17.70;99.90;;;;;;2603882;54;20026;31
2023/09/26 06:28:13;;;;;;;12.80;8.37;;;17.90;99.90;;;;;;2621761;47;20246;31
2023/09/26 06:30:51;;;;;;;16.92;9.07;;;17.90;99.90;;;;;;2603691;54;20862;31
2023/09/26 06:33:32;;;;;;;14.52;8.60;;;18.00;99.90;;;;;;2621845;46;20031;31
2023/09/26 06:36:25;;;;;;;12.45;7.75;;;18.00;99.90;;;;;;2603422;54;20918;31
2023/09/26 06:39:04;;;;;;;17.55;11.38;;;18.00;99.90;;;;;;2621880;46;20050;31
2023/09/26 06:42:02;;;;;;;18.67;10.75;;;18.20;99.90;;;;;;2603217;54;20883;31
2023/09/26 06:44:44;;;;;;;15.68;10.10;;;18.20;99.90;;;;;;2603403;54;20874;31
2023/09/26 06:47:21;;;;;;;18.88;11.25;;;18.30;99.90;;;;;;2603556;54;20018;31
2023/09/26 06:50:00;;;;;;;17.15;10.73;;;18.40;99.90;;;;;;2603475;54;20027;31
2023/09/26 06:52:44;;;;;;;16.02;10.10;;;18.40;99.90;;;;;;2702003;39;20416;31
2023/09/26 06:55:22;;;;;;;23.45;12.07;;;18.40;99.90;;;;;;2621915;46;20954;31
2023/09/26 06:58:02;;;;;;;18.67;11.15;;;18.50;99.90;;;;;;2603627;54;20031;31
2023/09/26 07:00:41;;;;;;;16.17;10.90;;;18.60;99.90;;;;;;2602651;54;20022;31
2023/09/26 07:03:19;;;;;;;19.05;10.65;;;18.70;99.90;;;;;;2621876;46;20026;31
2023/09/26 07:06:13;;;;;;;18.50;10.45;;;18.90;99.90;;;;;;2603363;54;20022;31
2023/09/26 07:08:57;;;;;;;17.95;10.88;;;19.00;99.90;;;;;;2603336;54;20069;31
2023/09/26 07:11:38;;;;;;;18.88;10.70;;;19.20;99.90;;;;;;2603261;54;19935;31
2023/09/26 07:14:27;;;;;;;18.00;10.52;;;19.40;99.90;;;;;;2603228;54;20106;31
2023/09/26 07:17:29;;;;;;;20.23;10.93;;;19.40;99.90;;;;;;2603460;54;20085;31
2023/09/26 07:23:27;;;;;;;16.95;11.02;;;19.30;99.90;;;;;;2603098;54;20948;31
2023/09/26 07:26:27;;;;;;;21.27;10.38;;;19.20;99.90;;;;;;2603429;54;20873;31
2023/09/26 07:29:08;;;;;;;19.77;10.88;;;19.30;99.90;;;;;;2701963;39;21433;31
2023/09/26 07:31:51;;;;;;;17.40;10.80;;;19.30;99.90;;;;;;2621801;46;20030;31
2023/09/26 07:34:26;;;;;;;19.60;10.60;;;19.30;99.90;;;;;;2621229;46;21000;31
2023/09/26 07:37:02;;;;;;;19.48;11.32;;;19.20;99.90;;;;;;2603273;54;19934;31
2023/09/26 07:39:41;;;;;;;23.83;11.63;;;19.20;99.90;;;;;;2603236;54;20926;31
2023/09/26 07:42:29;;;;;;;18.65;10.48;;;19.30;99.90;;;;;;2621691;46;20038;31
2023/09/26 07:45:18;;;;;;;16.90;11.18;;;19.30;99.90;;;;;;2603531;54;20029;31
2023/09/26 07:48:01;;;;;;;18.90;10.70;;;19.30;99.90;;;;;;2603404;54;20033;31
2023/09/26 07:50:40;;;;;;;21.35;10.40;;;19.30;99.90;;;;;;2603127;54;20034;31
2023/09/26 07:53:16;;;;;;;19.38;11.75;;;19.30;99.90;;;;;;2602287;54;20899;31
2023/09/26 07:55:58;;;;;;;17.45;10.70;;;19.30;99.90;;;;;;2603184;54;20942;31
2023/09/26 07:58:59;;;;;;;21.70;11.02;;;19.30;99.90;;;;;;2603373;54;20029;31
2023/09/26 08:01:39;;;;;;;20.75;11.07;;;19.30;99.90;;;;;;2603461;54;20030;31
2023/09/26 08:04:22;;;;;;;25.13;10.93;;;19.20;99.90;;;;;;2621892;46;20026;31
2023/09/26 08:09:36;;;;;;;20.17;11.23;;;19.10;99.90;;;;;;2603304;54;20052;31
2023/09/26 08:12:15;;;;;;;18.15;11.45;;;19.10;99.90;;;;;;2701883;39;20405;31
2023/09/26 08:14:56;;;;;;;18.57;11.17;;;19.10;99.90;;;;;;2603049;54;20025;31
2023/09/26 08:17:37;;;;;;;18.47;10.37;;;19.00;99.90;;;;;;2602477;54;20833;31
2023/09/26 08:20:23;;;;;;;21.52;10.85;;;19.00;99.90;;;;;;2605424;46;20951;31
2023/09/26 08:23:02;;;;;;;22.63;10.57;;;19.00;99.90;;;;;;2603320;54;20030;31
2023/09/26 08:25:54;;;;;;;18.50;11.45;;;19.00;99.90;;;;;;2603405;54;20026;31
2023/09/26 08:28:32;;;;;;;19.83;11.00;;;18.90;99.90;;;;;;2603250;54;20206;31
2023/09/26 08:31:20;;;;;;;19.63;11.77;;;18.90;99.90;;;;;;2603072;54;19942;31
2023/09/26 08:34:04;;;;;;;19.33;10.60;;;18.90;99.90;;;;;;2603193;54;20703;31
2023/09/26 08:36:43;;;;;;;21.30;11.23;;;18.80;99.90;;;;;;2602553;54;20064;31
2023/09/26 08:39:25;;;;;;;21.90;11.88;;;18.80;99.90;;;;;;2603190;54;20855;31
2023/09/26 08:42:18;;;;;;;19.80;11.50;;;18.80;99.90;;;;;;2603058;54;20050;31
2023/09/26 08:47:35;;;;;;;22.47;11.50;;;18.80;99.90;;;;;;2603345;54;19958;31
2023/09/26 08:50:33;;;;;;;24.23;12.35;;;18.80;99.90;;;;;;2606920;46;20294;31
2023/09/26 08:53:13;;;;;;;23.58;10.40;;;18.80;99.90;;;;;;2603496;54;20065;31
2023/09/26 08:55:53;;;;;;;24.67;11.30;;;18.90;99.90;;;;;;2602924;54;20116;31
2023/09/26 08:58:37;;;;;;;19.45;10.50;;;18.90;99.90;;;;;;2602798;54;20009;31
2023/09/26 09:04:27;;;;;;;19.38;11.02;;;19.00;99.90;;;;;;2603181;54;20077;31
2023/09/26 09:07:16;;;;;;;23.42;11.27;;;19.00;99.90;;;;;;2602953;54;20133;31
2023/09/26 09:10:13;;;;;;;16.35;10.48;;;19.00;99.90;;;;;;2606697;47;20027;31
2023/09/26 09:12:55;;;;;;;17.75;10.52;;;19.00;99.90;;;;;;2602989;54;20031;31
2023/09/26 09:15:46;;;;;;;19.67;11.07;;;19.00;99.90;;;;;;2603121;54;20057;31
2023/09/26 09:18:33;;;;;;;17.95;10.20;;;19.10;99.90;;;;;;2603009;54;20040;31
2023/09/26 09:21:34;;;;;;;18.13;11.23;;;19.10;99.90;;;;;;2603197;54;20089;31
2023/09/26 09:24:23;;;;;;;18.05;10.90;;;19.20;99.90;;;;;;2602704;54;20042;31
2023/09/26 09:27:17;;;;;;;20.85;11.45;;;19.10;99.90;;;;;;2602813;54;20092;31
2023/09/26 09:30:11;;;;;;;21.35;11.50;;;19.10;99.90;;;;;;2621365;47;20103;31
2023/09/26 09:32:49;;;;;;;19.63;11.30;;;19.20;99.90;;;;;;2602860;54;20031;31
2023/09/26 09:38:21;;;;;;;21.35;12.25;;;19.20;99.90;;;;;;2603141;54;20046;31
2023/09/26 09:41:07;;;;;;;17.38;11.15;;;19.20;99.90;;;;;;2621498;47;20030;31
2023/09/26 09:43:47;;;;;;;22.27;11.13;;;19.20;99.90;;;;;;2620906;47;20107;31
2023/09/26 09:49:24;;;;;;;18.02;10.57;;;19.20;99.90;;;;;;2621573;47;20027;31
2023/09/26 09:55:05;;;;;;;21.40;11.95;;;19.30;99.90;;;;;;2602806;54;20132;31
2023/09/26 09:58:09;;;;;;;21.65;11.35;;;19.30;99.90;;;;;;2621459;46;20026;31
2023/09/26 10:01:06;;;;;;;20.10;11.35;;;19.40;99.90;;;;;;2602891;54;20775;31
2023/09/26 10:03:48;;;;;;;23.67;12.07;;;19.40;99.90;;;;;;2603723;54;20887;31
2023/09/26 10:06:26;;;;;;;21.52;11.80;;;19.30;99.90;;;;;;2603614;54;20031;31
2023/09/26 10:09:08;;;;;;;24.92;12.43;;;19.40;99.90;;;;;;2617418;46;20877;31
2023/09/26 10:11:44;;;;;;;20.58;12.60;;;19.50;99.90;;;;;;2621936;46;19985;31
2023/09/26 10:14:24;;;;;;;20.65;11.52;;;19.50;99.90;;;;;;2602827;54;20913;31
2023/09/26 10:17:06;;;;;;;23.52;11.82;;;19.50;99.90;;;;;;2603552;54;20038;31
2023/09/26 10:19:44;;;;;;;17.98;11.68;;;19.50;99.90;;;;;;2603479;54;20034;31
2023/09/26 10:22:37;;;;;;;24.83;13.03;;;19.60;99.90;;;;;;2603638;54;20085;31
2023/09/26 10:25:18;;;;;;;22.40;12.57;;;19.70;99.90;;;;;;2614218;46;20022;31
2023/09/26 10:27:59;;;;;;;22.33;11.80;;;19.70;99.90;;;;;;2622120;46;20034;31
2023/09/26 10:30:45;;;;;;;21.67;12.75;;;19.70;99.90;;;;;;2603525;54;20842;31
2023/09/26 10:33:25;;;;;;;23.63;13.77;;;19.70;99.90;;;;;;2621926;46;20026;31
2023/09/26 10:39:37;;;;;;;19.90;11.47;;;19.70;99.90;;;;;;2603478;54;20037;31
2023/09/26 10:42:19;;;;;;;25.90;12.25;;;19.80;99.90;;;;;;2701871;39;21764;31
2023/09/26 10:45:04;;;;;;;21.25;12.80;;;19.90;99.90;;;;;;2603458;54;20030;31
2023/09/26 10:47:40;;;;;;;18.58;11.95;;;19.90;99.90;;;;;;2621808;46;20065;31
2023/09/26 10:50:24;;;;;;;19.60;11.38;;;20.00;99.90;;;;;;2615579;46;20093;31
2023/09/26 10:53:02;;;;;;;20.23;12.45;;;20.00;99.90;;;;;;2603647;54;20026;31
2023/09/26 10:55:40;;;;;;;21.77;12.38;;;20.00;99.90;;;;;;2603409;54;20843;31
2023/09/26 10:58:23;;;;;;;20.92;11.80;;;20.00;99.90;;;;;;2701108;39;21333;31
2023/09/26 11:01:01;;;;;;;21.25;11.80;;;20.00;99.90;;;;;;2602706;54;20022;31
2023/09/26 11:03:37;;;;;;;21.63;12.05;;;20.00;99.90;;;;;;2616973;46;20041;31
2023/09/26 11:06:16;;;;;;;;;;;20.00;99.90;;;;;;2622028;46;20879;31
2023/09/26 11:08:58;;;;;;;22.10;13.32;;;20.00;99.90;;;;;;2621825;46;20720;31
2023/09/26 11:11:37;;;;;;;21.70;11.73;;;20.20;99.90;;;;;;2603380;54;20828;31
2023/09/26 11:14:17;;;;;;;22.40;12.77;;;20.20;99.90;;;;;;2603289;54;20023;31
2023/09/26 11:16:54;;;;;;;25.23;13.43;;;20.20;99.90;;;;;;2621814;46;19976;31
2023/09/26 11:19:31;;;;;;;;;;;20.20;99.90;;;;;;2702238;39;21528;31
2023/09/26 11:22:28;;;;;;;21.45;12.40;;;20.30;99.90;;;;;;2603311;54;19941;31
2023/09/26 11:25:15;;;;;;;20.58;12.70;;;20.30;99.90;;;;;;2603246;54;20050;31
2023/09/26 11:27:50;;;;;;;20.30;12.40;;;20.40;99.90;;;;;;2603153;54;20513;31
2023/09/26 11:30:29;;;;;;;21.00;12.13;;;20.50;99.90;;;;;;2603346;54;20023;31
2023/09/26 11:33:09;;;;;;;21.75;12.45;;;20.60;99.90;;;;;;2603432;54;20026;31
2023/09/26 11:35:49;;;;;;;19.95;12.05;;;20.70;99.90;;;;;;2603364;54;20029;31
2023/09/26 11:41:05;;;;;;;21.73;11.65;;;20.70;99.90;;;;;;2603400;54;20828;31
2023/09/26 11:43:47;;;;;;;17.95;10.55;;;20.60;99.90;;;;;;2603381;54;21253;31
2023/09/26 11:46:37;;;;;;;21.07;11.50;;;20.60;99.90;;;;;;2622133;46;20049;31
2023/09/26 11:49:15;;;;;;;21.77;11.40;;;20.60;99.90;;;;;;2603190;54;20145;31
2023/09/26 11:51:49;;;;;;;19.77;11.80;;;20.60;99.90;;;;;;2621718;46;20038;31
2023/09/26 11:54:27;;;;;;;21.27;12.23;;;20.70;99.90;;;;;;2621998;46;20089;31
2023/09/26 11:57:11;;;;;;;;;;;20.80;99.90;;;;;;2602907;54;20081;31
2023/09/26 11:59:51;;;;;;;18.52;10.88;;;20.80;99.90;;;;;;2621934;46;19941;31
2023/09/26 12:02:32;;;;;;;19.45;10.90;;;20.80;99.90;;;;;;2603191;54;20023;31
2023/09/26 12:05:11;;;;;;;21.50;12.10;;;20.90;99.90;;;;;;2783269;31;20001;31
2023/09/26 12:07:48;;;;;;;21.05;11.25;;;20.80;99.90;;;;;;2603256;54;20034;31
2023/09/26 12:10:26;;;;;;;20.30;10.90;;;20.90;99.90;;;;;;2602545;54;20034;31
2023/09/26 12:13:10;;;;;;;18.50;11.70;;;20.90;99.90;;;;;;2603086;54;20073;31
2023/09/26 12:15:47;;;;;;;17.83;10.95;;;21.00;99.90;;;;;;2603233;54;20027;31
2023/09/26 12:18:25;;;;;;;19.90;11.35;;;21.00;99.90;;;;;;2603132;54;20092;31
2023/09/26 12:21:04;;;;;;;20.20;11.80;;;21.10;99.90;;;;;;2602489;54;24912;31
2023/09/26 12:23:44;;;;;;;18.52;11.38;;;21.10;99.90;;;;;;2603253;54;20026;31
2023/09/26 12:26:24;;;;;;;18.50;10.38;;;21.10;99.90;;;;;;2603001;54;20887;31
2023/09/26 12:31:38;;;;;;;17.95;10.40;;;21.10;99.90;;;;;;2701853;39;21100;31
2023/09/26 12:34:18;;;;;;;18.45;10.45;;;21.10;99.90;;;;;;2602979;54;20868;31
2023/09/26 12:36:57;;;;;;;18.83;10.60;;;21.10;99.90;;;;;;2621892;46;20053;31
2023/09/26 12:39:35;;;;;;;16.13;10.13;;;21.20;99.90;;;;;;2603051;54;20868;31
2023/09/26 12:42:21;;;;;;;17.70;9.82;;;21.20;99.90;;;;;;2603220;54;20895;31
2023/09/26 12:45:02;;;;;;;17.10;10.30;;;21.20;99.90;;;;;;2621701;46;20821;31
2023/09/26 12:50:25;;;;;;;16.15;9.10;;;21.30;99.90;;;;;;2603147;54;20970;31
2023/09/26 12:53:06;;;;;;;16.30;10.10;;;21.30;99.90;;;;;;2603026;54;20033;31
2023/09/26 12:55:44;;;;;;;15.55;9.60;;;21.30;99.90;;;;;;2603261;54;20026;31
2023/09/26 12:58:21;;;;;;;14.30;8.75;;;21.30;99.90;;;;;;2621348;47;25047;31
2023/09/26 13:01:00;;;;;;;15.35;8.65;;;21.30;99.90;;;;;;2621571;47;20049;31
2023/09/26 13:03:38;;;;;;;16.00;9.10;;;21.30;99.90;;;;;;2603128;54;20026;31
2023/09/26 13:06:17;;;;;;;15.25;8.45;;;21.40;99.90;;;;;;2603140;54;20035;31
2023/09/26 13:08:53;;;;;;;16.58;9.50;;;21.40;99.90;;;;;;2602909;54;20892;31
2023/09/26 13:11:32;;;;;;;15.95;9.05;;;21.40;99.90;;;;;;2621599;47;20029;31
2023/09/26 13:14:09;;;;;;;15.55;8.80;;;21.40;99.90;;;;;;2621556;47;20112;31
2023/09/26 13:16:47;;;;;;;13.20;8.30;;;21.50;99.90;;;;;;2603027;54;20844;31
2023/09/26 13:19:25;;;;;;;14.23;8.02;;;21.50;99.90;;;;;;2621616;47;20038;31
2023/09/26 13:22:18;;;;;;;21.15;8.35;;;21.60;99.90;;;;;;2602979;54;20050;31
2023/09/26 13:25:01;;;;;;;12.48;8.55;;;21.60;99.90;;;;;;2603148;54;20077;31
2023/09/26 13:27:39;;;;;;;13.25;8.52;;;21.60;99.90;;;;;;2603081;54;20919;31
2023/09/26 13:30:20;;;;;;;12.43;7.80;;;21.70;99.90;;;;;;2621372;47;20022;31
2023/09/26 13:32:57;;;;;;;14.30;8.30;;;21.70;99.90;;;;;;2602248;54;20785;31
2023/09/26 13:35:35;;;;;;;10.65;7.22;;;21.80;99.90;;;;;;2602234;54;20976;31
2023/09/26 13:38:18;;;;;;;13.90;8.40;;;21.80;99.90;;;;;;2603132;54;20136;31
2023/09/26 13:40:57;;;;;;;10.77;7.25;;;21.90;99.90;;;;;;2622203;46;19941;31
2023/09/26 13:43:35;;;;;;;13.88;8.15;;;21.90;99.90;;;;;;2622324;46;20049;31
2023/09/26 13:46:11;;;;;;;11.20;7.95;;;21.90;99.90;;;;;;2603425;54;20966;31
2023/09/26 13:49:00;;;;;;;14.37;7.57;;;21.90;99.90;;;;;;2603869;54;20863;31
2023/09/26 13:51:36;;;;;;;10.95;7.10;;;21.90;99.90;;;;;;2622488;46;20974;31
2023/09/26 13:54:19;;;;;;;13.07;8.13;;;22.00;99.90;;;;;;2617280;46;20038;31
2023/09/26 13:56:58;;;;;;;14.05;7.25;;;22.00;99.90;;;;;;2607648;46;20955;31
2023/09/26 13:59:36;;;;;;;12.32;7.15;;;22.00;99.90;;;;;;2603875;54;20031;31
2023/09/26 14:02:12;;;;;;;14.40;7.70;;;22.00;99.90;;;;;;2603163;54;19944;31
2023/09/26 14:05:03;;;;;;;14.13;7.30;;;22.10;99.90;;;;;;2603663;54;20046;31
2023/09/26 14:07:58;;;;;;;13.27;7.25;;;22.10;99.90;;;;;;2621720;46;20102;31
2023/09/26 14:10:34;;;;;;;14.50;7.22;;;22.10;99.90;;;;;;2603739;54;20109;31
2023/09/26 14:13:16;;;;;;;9.67;6.67;;;22.10;99.90;;;;;;2603075;54;20029;31
2023/09/26 14:15:54;;;;;;;10.50;6.07;;;22.10;99.90;;;;;;2602782;54;22485;31
2023/09/26 14:18:32;;;;;;;10.67;6.70;;;22.10;99.90;;;;;;2606992;46;20085;31
2023/09/26 14:21:14;;;;;;;14.27;6.80;;;22.20;99.90;;;;;;2603555;54;19941;31
2023/09/26 14:23:53;;;;;;;10.48;6.80;;;22.20;99.90;;;;;;2603707;54;20838;31
2023/09/26 14:26:32;;;;;;;9.60;6.18;;;22.20;99.90;;;;;;2621165;46;20112;31
2023/09/26 14:29:17;;;;;;;11.90;7.07;;;22.20;99.90;;;;;;2602885;54;19941;31
2023/09/26 14:31:53;;;;;;;8.82;5.95;;;22.20;99.90;;;;;;2603667;54;21095;31
2023/09/26 14:34:29;;;;;;;9.07;5.30;;;22.20;99.90;;;;;;2603841;54;20092;31
2023/09/26 14:37:06;;;;;;;11.00;6.15;;;22.20;99.90;;;;;;2603467;54;20887;31